sensor_id;sensor_type;location;lat;lon;timestamp;pressure;altitude;pressure_sealevel;temperature;humidity
75886;BME280;64561;44.018;10.144;2024-01-15T00:02:07;100507.31;;;10.50;100.00
75886;BME280;64561;44.018;10.144;2024-01-15T00:04:38;100498.75;;;10.49;100.00
75886;BME280;64561;44.018;10.144;2024-01-15T00:07:07;100497.91;;;10.49;100.00
75886;BME280;64561;44.018;10.144;2024-01-15T00:09:34;100492.88;;;10.53;100.00
75886;BME280;64561;44.018;10.144;2024-01-15T00:12:02;100486.88;;;10.51;100.00
75886;BME280;64561;44.018;10.144;2024-01-15T00:14:29;100483.50;;;10.54;100.00
75886;BME280;64561;44.018;10.144;2024-01-15T00:16:56;100481.75;;;10.51;100.00
75886;BME280;64561;44.018;10.144;2024-01-15T00:19:24;100473.22;;;10.52;100.00
75886;BME280;64561;44.018;10.144;2024-01-15T00:21:51;100471.78;;;10.65;100.00
75886;BME280;64561;44.018;10.144;2024-01-15T00:24:21;100470.78;;;10.59;100.00
75886;BME280;64561;44.018;10.144;2024-01-15T00:26:48;100468.28;;;10.60;100.00
75886;BME280;64561;44.018;10.144;2024-01-15T00:29:16;100461.38;;;10.56;100.00
75886;BME280;64561;44.018;10.144;2024-01-15T00:31:43;100458.72;;;10.51;100.00
75886;BME280;64561;44.018;10.144;2024-01-15T00:34:10;100454.50;;;10.53;100.00
75886;BME280;64561;44.018;10.144;2024-01-15T00:36:37;100450.25;;;10.54;100.00
75886;BME280;64561;44.018;10.144;2024-01-15T00:39:04;100438.38;;;10.56;100.00
75886;BME280;64561;44.018;10.144;2024-01-15T00:41:34;100430.63;;;10.53;100.00
75886;BME280;64561;44.018;10.144;2024-01-15T00:44:01;100431.44;;;10.52;100.00
75886;BME280;64561;44.018;10.144;2024-01-15T00:46:29;100422.97;;;10.53;100.00
75886;BME280;64561;44.018;10.144;2024-01-15T00:48:56;100428.03;;;10.51;100.00
75886;BME280;64561;44.018;10.144;2024-01-15T00:51:24;100414.38;;;10.51;100.00
75886;BME280;64561;44.018;10.144;2024-01-15T00:53:51;100413.53;;;10.50;100.00
75886;BME280;64561;44.018;10.144;2024-01-15T00:56:18;100404.97;;;10.48;100.00
75886;BME280;64561;44.018;10.144;2024-01-15T00:58:45;100396.38;;;10.46;100.00
75886;BME280;64561;44.018;10.144;2024-01-15T01:01:12;100394.69;;;10.45;100.00
75886;BME280;64561;44.018;10.144;2024-01-15T01:03:40;100391.28;;;10.46;100.00
75886;BME280;64561;44.018;10.144;2024-01-15T01:06:07;100391.31;;;10.48;100.00
75886;BME280;64561;44.018;10.144;2024-01-15T01:08:34;100392.16;;;10.48;100.00
75886;BME280;64561;44.018;10.144;2024-01-15T01:11:01;100387.09;;;10.51;100.00
75886;BME280;64561;44.018;10.144;2024-01-15T01:13:28;100386.25;;;10.52;100.00
75886;BME280;64561;44.018;10.144;2024-01-15T01:15:55;100387.97;;;10.52;100.00
75886;BME280;64561;44.018;10.144;2024-01-15T01:18:23;100385.47;;;10.55;100.00
75886;BME280;64561;44.018;10.144;2024-01-15T01:20:50;100377.78;;;10.55;100.00
75886;BME280;64561;44.018;10.144;2024-01-15T01:23:17;100368.44;;;10.59;100.00
75886;BME280;64561;44.018;10.144;2024-01-15T01:25:45;100371.06;;;10.60;100.00
75886;BME280;64561;44.018;10.144;2024-01-15T01:28:12;100361.72;;;10.64;100.00
75886;BME280;64561;44.018;10.144;2024-01-15T01:30:39;100367.13;;;10.81;100.00
75886;BME280;64561;44.018;10.144;2024-01-15T01:33:06;100366.31;;;10.83;100.00
75886;BME280;64561;44.018;10.144;2024-01-15T01:35:33;100361.97;;;10.78;100.00
75886;BME280;64561;44.018;10.144;2024-01-15T01:38:01;100365.28;;;10.73;100.00
75886;BME280;64561;44.018;10.144;2024-01-15T01:40:28;100366.97;;;10.73;100.00
75886;BME280;64561;44.018;10.144;2024-01-15T01:42:55;100359.25;;;10.70;100.00
75886;BME280;64561;44.018;10.144;2024-01-15T01:45:22;100371.34;;;10.79;100.00
75886;BME280;64561;44.018;10.144;2024-01-15T01:47:50;100362.91;;;10.84;100.00
75886;BME280;64561;44.018;10.144;2024-01-15T01:50:17;100370.44;;;10.76;100.00
75886;BME280;64561;44.018;10.144;2024-01-15T01:52:44;100364.44;;;10.73;100.00
75886;BME280;64561;44.018;10.144;2024-01-15T01:55:12;100379.03;;;10.79;100.00
75886;BME280;64561;44.018;10.144;2024-01-15T01:57:40;100373.00;;;10.76;100.00
75886;BME280;64561;44.018;10.144;2024-01-15T02:00:09;100380.69;;;10.75;100.00
75886;BME280;64561;44.018;10.144;2024-01-15T02:02:39;100386.56;;;10.71;100.00
75886;BME280;64561;44.018;10.144;2024-01-15T02:05:06;100388.22;;;10.66;100.00
75886;BME280;64561;44.018;10.144;2024-01-15T02:07:34;100382.19;;;10.62;100.00
75886;BME280;64561;44.018;10.144;2024-01-15T02:10:02;100387.31;;;10.62;100.00
75886;BME280;64561;44.018;10.144;2024-01-15T02:12:30;100382.19;;;10.64;100.00
75886;BME280;64561;44.018;10.144;2024-01-15T02:14:57;100377.91;;;10.63;100.00
75886;BME280;64561;44.018;10.144;2024-01-15T02:17:24;100381.25;;;10.59;100.00
75886;BME280;64561;44.018;10.144;2024-01-15T02:19:51;100376.06;;;10.56;100.00
75886;BME280;64561;44.018;10.144;2024-01-15T02:22:19;100375.22;;;10.53;100.00
75886;BME280;64561;44.018;10.144;2024-01-15T02:24:46;100376.81;;;10.48;100.00
75886;BME280;64561;44.018;10.144;2024-01-15T02:27:13;100375.06;;;10.46;100.00
75886;BME280;64561;44.018;10.144;2024-01-15T02:29:41;100380.19;;;10.46;100.00
75886;BME280;64561;44.018;10.144;2024-01-15T02:32:08;100370.75;;;10.43;100.00
75886;BME280;64561;44.018;10.144;2024-01-15T02:34:36;100364.78;;;10.43;100.00
75886;BME280;64561;44.018;10.144;2024-01-15T02:37:03;100357.09;;;10.41;100.00
75886;BME280;64561;44.018;10.144;2024-01-15T02:39:30;100359.63;;;10.40;100.00
75886;BME280;64561;44.018;10.144;2024-01-15T02:41:57;100346.81;;;10.38;100.00
75886;BME280;64561;44.018;10.144;2024-01-15T02:44:24;100352.75;;;10.36;100.00
75886;BME280;64561;44.018;10.144;2024-01-15T02:46:51;100346.72;;;10.34;100.00
75886;BME280;64561;44.018;10.144;2024-01-15T02:49:18;100349.28;;;10.32;100.00
75886;BME280;64561;44.018;10.144;2024-01-15T02:51:46;100342.41;;;10.29;100.00
75886;BME280;64561;44.018;10.144;2024-01-15T02:54:13;100338.91;;;10.26;100.00
75886;BME280;64561;44.018;10.144;2024-01-15T02:56:42;100336.31;;;10.24;100.00
75886;BME280;64561;44.018;10.144;2024-01-15T02:59:09;100331.19;;;10.23;100.00
75886;BME280;64561;44.018;10.144;2024-01-15T03:01:37;100332.88;;;10.22;100.00
75886;BME280;64561;44.018;10.144;2024-01-15T03:04:04;100328.59;;;10.21;100.00
75886;BME280;64561;44.018;10.144;2024-01-15T03:06:31;100324.28;;;10.19;100.00
75886;BME280;64561;44.018;10.144;2024-01-15T03:08:58;100320.88;;;10.20;100.00
75886;BME280;64561;44.018;10.144;2024-01-15T03:11:25;100320.03;;;10.19;100.00
75886;BME280;64561;44.018;10.144;2024-01-15T03:13:53;100316.56;;;10.16;100.00
75886;BME280;64561;44.018;10.144;2024-01-15T03:16:20;100317.31;;;10.10;100.00
75886;BME280;64561;44.018;10.144;2024-01-15T03:18:47;100318.81;;;9.97;100.00
75886;BME280;64561;44.018;10.144;2024-01-15T03:21:14;100308.44;;;9.90;100.00
75886;BME280;64561;44.018;10.144;2024-01-15T03:23:42;100296.47;;;9.87;100.00
75886;BME280;64561;44.018;10.144;2024-01-15T03:26:09;100281.09;;;9.84;100.00
75886;BME280;64561;44.018;10.144;2024-01-15T03:28:36;100272.53;;;9.82;100.00
75886;BME280;64561;44.018;10.144;2024-01-15T03:31:03;100281.03;;;9.81;100.00
75886;BME280;64561;44.018;10.144;2024-01-15T03:33:31;100278.44;;;9.79;100.00
75886;BME280;64561;44.018;10.144;2024-01-15T03:35:58;100279.25;;;9.77;100.00
75886;BME280;64561;44.018;10.144;2024-01-15T03:38:28;100280.94;;;9.75;100.00
75886;BME280;64561;44.018;10.144;2024-01-15T03:40:55;100275.78;;;9.73;100.00
75886;BME280;64561;44.018;10.144;2024-01-15T03:43:22;100263.81;;;9.71;100.00
75886;BME280;64561;44.018;10.144;2024-01-15T03:45:49;100261.19;;;9.66;98.83
75886;BME280;64561;44.018;10.144;2024-01-15T03:48:16;100255.13;;;9.62;97.18
75886;BME280;64561;44.018;10.144;2024-01-15T03:50:44;100253.53;;;9.66;97.44
75886;BME280;64561;44.018;10.144;2024-01-15T03:53:11;100250.31;;;9.78;96.63
75886;BME280;64561;44.018;10.144;2024-01-15T03:55:38;100241.72;;;9.74;97.28
75886;BME280;64561;44.018;10.144;2024-01-15T03:58:05;100244.91;;;9.62;98.31
75886;BME280;64561;44.018;10.144;2024-01-15T04:00:34;100235.44;;;9.55;98.85
75886;BME280;64561;44.018;10.144;2024-01-15T04:03:01;100228.44;;;9.45;99.16
75886;BME280;64561;44.018;10.144;2024-01-15T04:05:28;100220.69;;;9.41;99.17
75886;BME280;64561;44.018;10.144;2024-01-15T04:07:55;100214.69;;;9.38;100.00
75886;BME280;64561;44.018;10.144;2024-01-15T04:10:22;100214.72;;;9.40;100.00
75886;BME280;64561;44.018;10.144;2024-01-15T04:12:50;100210.47;;;9.41;100.00
75886;BME280;64561;44.018;10.144;2024-01-15T04:15:17;100209.63;;;9.40;100.00
75886;BME280;64561;44.018;10.144;2024-01-15T04:17:44;100191.75;;;9.42;99.42
75886;BME280;64561;44.018;10.144;2024-01-15T04:20:12;100191.75;;;9.40;99.57
75886;BME280;64561;44.018;10.144;2024-01-15T04:22:39;100183.94;;;9.32;99.18
75886;BME280;64561;44.018;10.144;2024-01-15T04:25:06;100179.50;;;9.22;99.43
75886;BME280;64561;44.018;10.144;2024-01-15T04:27:33;100172.59;;;9.16;99.94
75886;BME280;64561;44.018;10.144;2024-01-15T04:30:00;100163.91;;;9.07;100.00
75886;BME280;64561;44.018;10.144;2024-01-15T04:32:29;100157.78;;;8.99;100.00
75886;BME280;64561;44.018;10.144;2024-01-15T04:34:57;100153.63;;;9.04;100.00
75886;BME280;64561;44.018;10.144;2024-01-15T04:37:24;100148.59;;;9.08;99.91
75886;BME280;64561;44.018;10.144;2024-01-15T04:39:51;100149.25;;;8.97;100.00
75886;BME280;64561;44.018;10.144;2024-01-15T04:42:21;100150.91;;;8.95;100.00
75886;BME280;64561;44.018;10.144;2024-01-15T04:44:51;100153.47;;;8.95;100.00
75886;BME280;64561;44.018;10.144;2024-01-15T04:47:18;100157.94;;;9.06;100.00
75886;BME280;64561;44.018;10.144;2024-01-15T04:49:45;100153.59;;;9.02;100.00
75886;BME280;64561;44.018;10.144;2024-01-15T04:52:13;100147.56;;;8.97;100.00
75886;BME280;64561;44.018;10.144;2024-01-15T04:54:40;100151.81;;;8.98;100.00
75886;BME280;64561;44.018;10.144;2024-01-15T04:57:07;100151.03;;;9.02;100.00
75886;BME280;64561;44.018;10.144;2024-01-15T04:59:34;100149.44;;;9.06;100.00
75886;BME280;64561;44.018;10.144;2024-01-15T05:02:01;100142.59;;;9.05;100.00
75886;BME280;64561;44.018;10.144;2024-01-15T05:04:29;100142.63;;;9.06;100.00
75886;BME280;64561;44.018;10.144;2024-01-15T05:06:56;100144.22;;;9.00;100.00
75886;BME280;64561;44.018;10.144;2024-01-15T05:09:23;100135.56;;;8.93;100.00
75886;BME280;64561;44.018;10.144;2024-01-15T05:11:51;100135.66;;;8.98;100.00
75886;BME280;64561;44.018;10.144;2024-01-15T05:14:18;100136.22;;;8.83;100.00
75886;BME280;64561;44.018;10.144;2024-01-15T05:16:49;100137.00;;;8.80;100.00
75886;BME280;64561;44.018;10.144;2024-01-15T05:19:16;100142.72;;;8.68;100.00
75886;BME280;64561;44.018;10.144;2024-01-15T05:21:44;100143.53;;;8.66;100.00
75886;BME280;64561;44.018;10.144;2024-01-15T05:24:11;100146.06;;;8.64;100.00
75886;BME280;64561;44.018;10.144;2024-01-15T05:26:38;100141.84;;;8.66;100.00
75886;BME280;64561;44.018;10.144;2024-01-15T05:29:05;100140.16;;;8.67;100.00
75886;BME280;64561;44.018;10.144;2024-01-15T05:31:33;100146.88;;;8.63;100.00
75886;BME280;64561;44.018;10.144;2024-01-15T05:34:00;100144.25;;;8.60;100.00
75886;BME280;64561;44.018;10.144;2024-01-15T05:36:28;100148.47;;;8.58;100.00
75886;BME280;64561;44.018;10.144;2024-01-15T05:38:55;100157.00;;;8.60;100.00
75886;BME280;64561;44.018;10.144;2024-01-15T05:41:22;100152.91;;;8.67;100.00
75886;BME280;64561;44.018;10.144;2024-01-15T05:43:49;100158.34;;;8.84;100.00
75886;BME280;64561;44.018;10.144;2024-01-15T05:46:16;100155.78;;;8.82;100.00
75886;BME280;64561;44.018;10.144;2024-01-15T05:48:44;100155.72;;;8.79;100.00
75886;BME280;64561;44.018;10.144;2024-01-15T05:51:12;100145.47;;;8.78;100.00
75886;BME280;64561;44.018;10.144;2024-01-15T05:53:39;100144.72;;;8.83;100.00
75886;BME280;64561;44.018;10.144;2024-01-15T05:56:09;100141.31;;;8.83;100.00
75886;BME280;64561;44.018;10.144;2024-01-15T05:58:37;100144.78;;;8.85;100.00
75886;BME280;64561;44.018;10.144;2024-01-15T06:01:04;100139.63;;;8.83;100.00
75886;BME280;64561;44.018;10.144;2024-01-15T06:03:31;100135.41;;;8.85;100.00
75886;BME280;64561;44.018;10.144;2024-01-15T06:05:59;100139.72;;;8.88;100.00
75886;BME280;64561;44.018;10.144;2024-01-15T06:08:26;100140.53;;;8.87;100.00
75886;BME280;64561;44.018;10.144;2024-01-15T06:10:56;100149.13;;;8.90;100.00
75886;BME280;64561;44.018;10.144;2024-01-15T06:13:27;100143.03;;;8.84;100.00
75886;BME280;64561;44.018;10.144;2024-01-15T06:15:54;100147.31;;;8.85;100.00
75886;BME280;64561;44.018;10.144;2024-01-15T06:18:21;100147.38;;;8.88;100.00
75886;BME280;64561;44.018;10.144;2024-01-15T06:20:49;100149.03;;;8.87;100.00
75886;BME280;64561;44.018;10.144;2024-01-15T06:23:16;100148.25;;;8.90;100.00
75886;BME280;64561;44.018;10.144;2024-01-15T06:25:47;100142.22;;;8.85;100.00
75886;BME280;64561;44.018;10.144;2024-01-15T06:28:14;100140.31;;;8.75;100.00
75886;BME280;64561;44.018;10.144;2024-01-15T06:30:41;100141.03;;;8.67;100.00
75886;BME280;64561;44.018;10.144;2024-01-15T06:33:09;100134.88;;;8.59;100.00
75886;BME280;64561;44.018;10.144;2024-01-15T06:35:36;100134.94;;;8.62;100.00
75886;BME280;64561;44.018;10.144;2024-01-15T06:38:29;100133.25;;;8.61;100.00
75886;BME280;64561;44.018;10.144;2024-01-15T06:40:56;100132.34;;;8.59;100.00
75886;BME280;64561;44.018;10.144;2024-01-15T06:43:23;100132.28;;;8.56;100.00
75886;BME280;64561;44.018;10.144;2024-01-15T06:45:50;100133.13;;;8.55;100.00
75886;BME280;64561;44.018;10.144;2024-01-15T06:48:17;100130.50;;;8.52;100.00
75886;BME280;64561;44.018;10.144;2024-01-15T06:50:45;100137.31;;;8.53;100.00
75886;BME280;64561;44.018;10.144;2024-01-15T06:53:14;100145.00;;;8.55;100.00
75886;BME280;64561;44.018;10.144;2024-01-15T06:55:42;100153.50;;;8.55;100.00
75886;BME280;64561;44.018;10.144;2024-01-15T06:58:09;100149.22;;;8.54;100.00
75886;BME280;64561;44.018;10.144;2024-01-15T07:00:36;100158.50;;;8.51;100.00
75886;BME280;64561;44.018;10.144;2024-01-15T07:03:04;100166.78;;;8.40;100.00
75886;BME280;64561;44.018;10.144;2024-01-15T07:05:32;100164.81;;;8.30;100.00
75886;BME280;64561;44.018;10.144;2024-01-15T07:07:59;100159.56;;;8.22;100.00
75886;BME280;64561;44.018;10.144;2024-01-15T07:10:26;100157.09;;;8.25;100.00
75886;BME280;64561;44.018;10.144;2024-01-15T07:12:59;100146.13;;;8.30;100.00
75886;BME280;64561;44.018;10.144;2024-01-15T07:15:27;100151.28;;;8.31;100.00
75886;BME280;64561;44.018;10.144;2024-01-15T07:17:54;100156.25;;;8.27;100.00
75886;BME280;64561;44.018;10.144;2024-01-15T07:20:22;100152.56;;;8.14;100.00
75886;BME280;64561;44.018;10.144;2024-01-15T07:22:49;100155.00;;;8.09;100.00
75886;BME280;64561;44.018;10.144;2024-01-15T07:25:16;100163.41;;;8.05;100.00
75886;BME280;64561;44.018;10.144;2024-01-15T07:27:44;100165.97;;;8.05;100.00
75886;BME280;64561;44.018;10.144;2024-01-15T07:30:12;100164.97;;;8.00;100.00
75886;BME280;64561;44.018;10.144;2024-01-15T07:32:40;100162.50;;;8.01;100.00
75886;BME280;64561;44.018;10.144;2024-01-15T07:35:08;100163.28;;;7.99;100.00
75886;BME280;64561;44.018;10.144;2024-01-15T07:37:35;100166.59;;;7.96;100.00
75886;BME280;64561;44.018;10.144;2024-01-15T07:40:02;100177.50;;;7.91;100.00
75886;BME280;64561;44.018;10.144;2024-01-15T07:42:31;100183.34;;;7.87;100.00
75886;BME280;64561;44.018;10.144;2024-01-15T07:44:58;100190.22;;;7.91;100.00
75886;BME280;64561;44.018;10.144;2024-01-15T07:47:26;100187.84;;;7.97;100.00
75886;BME280;64561;44.018;10.144;2024-01-15T07:49:53;100193.91;;;8.02;100.00
75886;BME280;64561;44.018;10.144;2024-01-15T07:52:21;100192.94;;;7.97;100.00
75886;BME280;64561;44.018;10.144;2024-01-15T07:54:48;100190.38;;;7.95;100.00
75886;BME280;64561;44.018;10.144;2024-01-15T07:57:16;100187.97;;;8.01;100.00
75886;BME280;64561;44.018;10.144;2024-01-15T07:59:43;100185.56;;;8.09;100.00
75886;BME280;64561;44.018;10.144;2024-01-15T08:02:10;100189.16;;;8.17;100.00
75886;BME280;64561;44.018;10.144;2024-01-15T08:04:38;100180.03;;;8.27;100.00
75886;BME280;64561;44.018;10.144;2024-01-15T08:07:08;100175.97;;;8.35;100.00
75886;BME280;64561;44.018;10.144;2024-01-15T08:09:35;100171.09;;;8.43;100.00
75886;BME280;64561;44.018;10.144;2024-01-15T08:12:03;100168.78;;;8.54;100.00
75886;BME280;64561;44.018;10.144;2024-01-15T08:14:33;100172.34;;;8.62;100.00
75886;BME280;64561;44.018;10.144;2024-01-15T08:17:00;100179.28;;;8.67;100.00
75886;BME280;64561;44.018;10.144;2024-01-15T08:19:28;100177.81;;;8.79;100.00
75886;BME280;64561;44.018;10.144;2024-01-15T08:21:56;100168.66;;;8.88;100.00
75886;BME280;64561;44.018;10.144;2024-01-15T08:24:23;100171.34;;;8.96;100.00
75886;BME280;64561;44.018;10.144;2024-01-15T08:26:50;100176.66;;;9.08;100.00
75886;BME280;64561;44.018;10.144;2024-01-15T08:29:17;100179.53;;;9.24;100.00
75886;BME280;64561;44.018;10.144;2024-01-15T08:31:48;100174.59;;;9.33;100.00
75886;BME280;64561;44.018;10.144;2024-01-15T08:34:15;100178.94;;;9.38;100.00
75886;BME280;64561;44.018;10.144;2024-01-15T08:36:42;100184.09;;;9.40;100.00
75886;BME280;64561;44.018;10.144;2024-01-15T08:39:09;100191.81;;;9.43;100.00
75886;BME280;64561;44.018;10.144;2024-01-15T08:41:37;100186.66;;;9.42;100.00
75886;BME280;64561;44.018;10.144;2024-01-15T08:44:04;100199.41;;;9.42;100.00
75886;BME280;64561;44.018;10.144;2024-01-15T08:46:31;100195.19;;;9.42;100.00
75886;BME280;64561;44.018;10.144;2024-01-15T08:48:58;100193.56;;;9.47;100.00
75886;BME280;64561;44.018;10.144;2024-01-15T08:51:26;100187.72;;;9.53;100.00
75886;BME280;64561;44.018;10.144;2024-01-15T08:53:53;100178.50;;;9.62;100.00
75886;BME280;64561;44.018;10.144;2024-01-15T08:56:20;100176.13;;;9.72;100.00
75886;BME280;64561;44.018;10.144;2024-01-15T08:58:47;100181.53;;;9.90;100.00
75886;BME280;64561;44.018;10.144;2024-01-15T09:01:15;100174.03;;;10.01;100.00
75886;BME280;64561;44.018;10.144;2024-01-15T09:03:42;100179.38;;;10.15;100.00
75886;BME280;64561;44.018;10.144;2024-01-15T09:06:10;100178.75;;;10.29;100.00
75886;BME280;64561;44.018;10.144;2024-01-15T09:08:38;100192.66;;;10.48;100.00
75886;BME280;64561;44.018;10.144;2024-01-15T09:11:05;100197.13;;;10.65;98.48
75886;BME280;64561;44.018;10.144;2024-01-15T09:13:32;100211.00;;;10.82;94.77
75886;BME280;64561;44.018;10.144;2024-01-15T09:15:59;100211.97;;;10.90;94.56
75886;BME280;64561;44.018;10.144;2024-01-15T09:18:27;100208.63;;;10.97;94.97
75886;BME280;64561;44.018;10.144;2024-01-15T09:20:55;100206.28;;;11.14;92.54
75886;BME280;64561;44.018;10.144;2024-01-15T09:23:22;100206.34;;;11.22;92.10
75886;BME280;64561;44.018;10.144;2024-01-15T09:25:49;100202.94;;;11.20;92.31
75886;BME280;64561;44.018;10.144;2024-01-15T09:28:19;100213.97;;;11.14;92.60
75886;BME280;64561;44.018;10.144;2024-01-15T09:30:46;100210.72;;;11.29;89.66
75886;BME280;64561;44.018;10.144;2024-01-15T09:33:14;100216.72;;;11.31;88.34
75886;BME280;64561;44.018;10.144;2024-01-15T09:35:41;100215.94;;;11.38;87.14
75886;BME280;64561;44.018;10.144;2024-01-15T09:38:09;100199.78;;;11.45;87.14
75886;BME280;64561;44.018;10.144;2024-01-15T09:40:38;100190.44;;;11.51;85.24
75886;BME280;64561;44.018;10.144;2024-01-15T09:43:05;100190.53;;;11.58;85.68
75886;BME280;64561;44.018;10.144;2024-01-15T09:45:33;100198.22;;;11.60;85.49
75886;BME280;64561;44.018;10.144;2024-01-15T09:48:00;100188.03;;;11.64;85.27
75886;BME280;64561;44.018;10.144;2024-01-15T09:50:28;100177.84;;;11.72;85.47
75886;BME280;64561;44.018;10.144;2024-01-15T09:52:56;100171.94;;;11.82;85.40
75886;BME280;64561;44.018;10.144;2024-01-15T09:55:24;100166.91;;;11.88;84.97
75886;BME280;64561;44.018;10.144;2024-01-15T09:57:52;100171.25;;;12.00;84.43
75886;BME280;64561;44.018;10.144;2024-01-15T10:00:22;100165.31;;;12.04;83.88
75886;BME280;64561;44.018;10.144;2024-01-15T10:02:49;100163.66;;;12.09;81.36
75886;BME280;64561;44.018;10.144;2024-01-15T10:05:16;100155.09;;;12.10;80.42
75886;BME280;64561;44.018;10.144;2024-01-15T10:07:46;100161.94;;;12.11;81.52
75886;BME280;64561;44.018;10.144;2024-01-15T10:10:16;100156.88;;;12.22;83.39
75886;BME280;64561;44.018;10.144;2024-01-15T10:12:44;100166.31;;;12.29;81.64
75886;BME280;64561;44.018;10.144;2024-01-15T10:15:12;100174.94;;;12.38;81.70
75886;BME280;64561;44.018;10.144;2024-01-15T10:17:39;100178.38;;;12.41;80.66
75886;BME280;64561;44.018;10.144;2024-01-15T10:20:11;100168.97;;;12.48;80.77
75886;BME280;64561;44.018;10.144;2024-01-15T10:22:41;100165.59;;;12.53;79.65
75886;BME280;64561;44.018;10.144;2024-01-15T10:25:12;100163.09;;;12.61;79.14
75886;BME280;64561;44.018;10.144;2024-01-15T10:27:41;100162.22;;;12.65;79.64
75886;BME280;64561;44.018;10.144;2024-01-15T10:30:12;100166.53;;;12.69;79.36
75886;BME280;64561;44.018;10.144;2024-01-15T10:32:41;100166.53;;;12.69;77.53
75886;BME280;64561;44.018;10.144;2024-01-15T10:35:09;100157.13;;;12.68;78.68
75886;BME280;64561;44.018;10.144;2024-01-15T10:37:36;100163.09;;;12.69;80.05
75886;BME280;64561;44.018;10.144;2024-01-15T10:40:04;100158.84;;;12.71;79.85
75886;BME280;64561;44.018;10.144;2024-01-15T10:42:32;100149.44;;;12.74;78.78
75886;BME280;64561;44.018;10.144;2024-01-15T10:44:59;100141.75;;;12.80;79.16
75886;BME280;64561;44.018;10.144;2024-01-15T10:47:26;100141.78;;;12.85;79.39
75886;BME280;64561;44.018;10.144;2024-01-15T10:49:54;100133.25;;;12.88;79.26
75886;BME280;64561;44.018;10.144;2024-01-15T10:52:21;100131.50;;;12.82;77.63
75886;BME280;64561;44.018;10.144;2024-01-15T10:54:48;100129.78;;;12.79;78.49
75886;BME280;64561;44.018;10.144;2024-01-15T10:57:18;100122.13;;;12.95;78.78
75886;BME280;64561;44.018;10.144;2024-01-15T10:59:46;100099.03;;;13.01;78.68
75886;BME280;64561;44.018;10.144;2024-01-15T11:02:14;100100.75;;;13.07;77.90
75886;BME280;64561;44.018;10.144;2024-01-15T11:04:42;100099.03;;;13.13;79.65
75886;BME280;64561;44.018;10.144;2024-01-15T11:07:10;100084.50;;;13.17;79.82
75886;BME280;64561;44.018;10.144;2024-01-15T11:09:39;100091.38;;;13.21;79.61
75886;BME280;64561;44.018;10.144;2024-01-15T11:12:08;100091.38;;;13.25;77.51
75886;BME280;64561;44.018;10.144;2024-01-15T11:14:46;100086.22;;;13.22;75.65
75886;BME280;64561;44.018;10.144;2024-01-15T11:17:15;100086.22;;;13.22;77.01
75886;BME280;64561;44.018;10.144;2024-01-15T11:19:43;100093.97;;;13.27;75.87
75886;BME280;64561;44.018;10.144;2024-01-15T11:25:03;100093.97;;;13.27;77.70
75886;BME280;64561;44.018;10.144;2024-01-15T11:27:51;100103.38;;;13.33;77.60
75886;BME280;64561;44.018;10.144;2024-01-15T11:30:25;100096.53;;;13.32;77.55
75886;BME280;64561;44.018;10.144;2024-01-15T11:32:53;100093.09;;;13.30;77.58
75886;BME280;64561;44.018;10.144;2024-01-15T11:35:20;100100.81;;;13.31;77.56
75886;BME280;64561;44.018;10.144;2024-01-15T11:40:36;100093.97;;;13.33;78.80
75886;BME280;64561;44.018;10.144;2024-01-15T11:43:05;100082.84;;;13.34;78.61
75886;BME280;64561;44.018;10.144;2024-01-15T11:45:34;100074.28;;;13.34;79.98
75886;BME280;64561;44.018;10.144;2024-01-15T11:48:15;100082.84;;;13.34;79.47
75886;BME280;64561;44.018;10.144;2024-01-15T11:50:48;100081.09;;;13.32;78.65
75886;BME280;64561;44.018;10.144;2024-01-15T11:53:43;100081.09;;;13.35;79.98
75886;BME280;64561;44.018;10.144;2024-01-15T11:56:15;100079.41;;;13.34;80.15
75886;BME280;64561;44.018;10.144;2024-01-15T11:58:44;100070.84;;;13.41;81.24
75886;BME280;64561;44.018;10.144;2024-01-15T12:01:11;100075.13;;;13.37;83.49
75886;BME280;64561;44.018;10.144;2024-01-15T12:03:39;100067.41;;;13.40;81.50
75886;BME280;64561;44.018;10.144;2024-01-15T12:06:07;100064.84;;;13.43;80.89
75886;BME280;64561;44.018;10.144;2024-01-15T12:08:34;100066.53;;;13.44;80.30
75886;BME280;64561;44.018;10.144;2024-01-15T12:11:07;100064.00;;;13.43;80.34
75886;BME280;64561;44.018;10.144;2024-01-15T12:13:38;100057.97;;;13.44;81.65
75886;BME280;64561;44.018;10.144;2024-01-15T12:16:05;100044.28;;;13.45;82.06
75886;BME280;64561;44.018;10.144;2024-01-15T12:18:32;100043.44;;;13.43;81.97
75886;BME280;64561;44.018;10.144;2024-01-15T12:21:00;100035.72;;;13.43;82.79
75886;BME280;64561;44.018;10.144;2024-01-15T12:23:27;100028.84;;;13.49;82.61
75886;BME280;64561;44.018;10.144;2024-01-15T12:25:54;100017.72;;;13.44;79.43
75886;BME280;64561;44.018;10.144;2024-01-15T12:28:22;100016.88;;;13.35;79.84
75886;BME280;64561;44.018;10.144;2024-01-15T12:30:49;100008.28;;;13.22;80.04
75886;BME280;64561;44.018;10.144;2024-01-15T12:33:18;100009.16;;;13.32;81.01
75886;BME280;64561;44.018;10.144;2024-01-15T12:35:48;100013.47;;;13.39;80.31
75886;BME280;64561;44.018;10.144;2024-01-15T12:38:18;100001.47;;;13.36;80.12
75886;BME280;64561;44.018;10.144;2024-01-15T12:43:38;100010.03;;;13.32;78.74
75886;BME280;64561;44.018;10.144;2024-01-15T12:46:07;100000.59;;;13.30;79.23
75886;BME280;64561;44.018;10.144;2024-01-15T12:48:35;100003.19;;;13.28;80.50
75886;BME280;64561;44.018;10.144;2024-01-15T12:51:06;100002.31;;;13.37;80.93